Terminal Aerodrome Forecast
Issued by NWS Memphis, TN

Home | Current Version | Previous Version | Text Only | Print | Product List | Glossary On
Versions: 1 2 3 4 5 6 7 8 9 10 11 12 13 14 15 16 17 18 19 20 21 22 23 24 25 26 27 28 29 30 31 32 33
000
FTUS44 KMEG 220259 CCA
TAFMEM
TAF COR
KMEM 220259Z 2203/2224 12008KT P6SM FEW040 SCT150
     FM220600 20007KT 5SM -TSRA SCT010 BKN030CB
      TEMPO 2207/2209 2SM TSRA BKN008 BKN015CB
     FM220900 21006KT 4SM -SHRA BR VCTS OVC006CB
     FM221400 23010G20KT 5SM SHRA VCTS BKN015CB OVC025=

USA.gov is the U.S. government's official web portal to all federal, state and local government web resources and services.